Time;durP1;ratioP1;P1;durP2;ratioP2;P2;SDS_P1;SDS_P2;PMS_P1;PMS_P2;Temp;Humidity;BMP_temperature;BMP_pressure;BME280_temperature;BME280_humidity;BME280_pressure;Samples;Min_cycle;Max_cycle;Signal;HPM_P1;HPM_P2
2021/09/07 00:01:41;;;;;;;10.23;8.13;;;17.60;99.90;;;;;;5034826;28;20030;-83
2021/09/07 00:04:07;;;;;;;10.45;8.02;;;17.50;99.90;;;;;;5017092;28;20370;-83
2021/09/07 00:06:36;;;;;;;8.55;6.88;;;17.50;99.90;;;;;;5017405;28;20091;-84
2021/09/07 00:09:04;;;;;;;9.25;7.30;;;17.50;99.90;;;;;;5016585;28;20051;-84
2021/09/07 00:11:33;;;;;;;10.20;7.55;;;17.50;99.90;;;;;;5034833;28;20057;-84
2021/09/07 00:14:03;;;;;;;9.85;7.50;;;17.60;99.90;;;;;;5033813;28;20025;-84
2021/09/07 00:16:29;;;;;;;12.90;7.75;;;17.60;99.90;;;;;;5017735;28;20037;-85
2021/09/07 00:18:55;;;;;;;12.18;8.07;;;17.70;99.90;;;;;;5016659;28;20442;-84
2021/09/07 00:21:21;;;;;;;11.45;7.85;;;17.70;99.90;;;;;;5034768;28;20105;-84
2021/09/07 00:23:48;;;;;;;12.63;7.82;;;17.80;99.90;;;;;;5017283;28;20090;-84
2021/09/07 00:26:19;;;;;;;9.83;7.37;;;17.80;99.90;;;;;;5034647;28;20405;-85
2021/09/07 00:28:49;;;;;;;10.95;8.23;;;17.80;99.90;;;;;;5032941;28;20274;-85
2021/09/07 00:31:21;;;;;;;10.25;6.97;;;17.90;99.90;;;;;;5018082;28;20187;-85
2021/09/07 00:33:49;;;;;;;10.35;7.38;;;17.90;99.90;;;;;;5032233;28;20029;-85
2021/09/07 00:36:15;;;;;;;10.82;7.35;;;17.90;99.90;;;;;;5033437;28;20107;-84
2021/09/07 00:38:41;;;;;;;9.20;6.95;;;18.00;99.90;;;;;;5034677;28;20335;-83
2021/09/07 00:41:07;;;;;;;9.77;7.07;;;18.00;99.90;;;;;;5036108;28;20025;-84
2021/09/07 00:43:38;;;;;;;11.38;7.38;;;18.00;99.90;;;;;;5033391;28;20022;-84
2021/09/07 00:46:07;;;;;;;10.38;7.97;;;18.00;99.90;;;;;;5034426;28;20385;-84
2021/09/07 00:48:37;;;;;;;9.05;6.82;;;17.90;99.90;;;;;;5034621;28;20022;-84
2021/09/07 00:51:02;;;;;;;9.68;7.25;;;17.90;99.90;;;;;;5016906;28;20101;-84
2021/09/07 00:53:30;;;;;;;9.98;7.60;;;18.00;99.90;;;;;;5034017;28;20455;-84
2021/09/07 00:55:57;;;;;;;9.75;7.65;;;18.00;99.90;;;;;;5032923;28;20069;-84
2021/09/07 00:58:29;;;;;;;13.43;7.88;;;18.00;99.90;;;;;;5033126;28;20056;-84
2021/09/07 01:00:57;;;;;;;10.77;7.32;;;18.00;99.90;;;;;;5032984;28;20116;-84
2021/09/07 01:03:23;;;;;;;10.70;7.70;;;18.00;99.90;;;;;;5033000;28;20025;-84
2021/09/07 01:05:52;;;;;;;10.68;7.63;;;18.00;99.90;;;;;;5032337;28;20375;-84
2021/09/07 01:08:18;;;;;;;9.18;6.68;;;18.00;99.90;;;;;;5000026;28;20053;-84
2021/09/07 01:10:44;;;;;;;11.02;8.40;;;18.00;99.90;;;;;;5033259;28;20465;-84
2021/09/07 01:13:11;;;;;;;11.02;8.15;;;18.00;99.90;;;;;;5016472;28;20128;-84
2021/09/07 01:15:39;;;;;;;10.68;7.75;;;17.90;99.90;;;;;;5016254;28;20029;-84
2021/09/07 01:18:10;;;;;;;10.73;7.97;;;17.90;99.90;;;;;;5000182;28;20033;-84
2021/09/07 01:20:36;;;;;;;9.80;6.85;;;17.90;99.90;;;;;;5034186;28;20116;-83
2021/09/07 01:23:02;;;;;;;9.65;7.57;;;18.00;99.90;;;;;;5015893;28;20545;-83
2021/09/07 01:25:28;;;;;;;11.07;7.30;;;17.90;99.90;;;;;;5016370;28;20037;-84
2021/09/07 01:27:53;;;;;;;9.30;7.30;;;17.90;99.90;;;;;;5032372;28;20079;-84
2021/09/07 01:30:19;;;;;;;10.32;7.95;;;17.90;99.90;;;;;;5032101;28;20490;-84
2021/09/07 01:32:45;;;;;;;10.88;7.90;;;17.90;99.90;;;;;;5032531;28;20033;-84
2021/09/07 01:35:11;;;;;;;9.20;7.10;;;17.90;99.90;;;;;;5032718;28;20462;-84
2021/09/07 01:37:39;;;;;;;11.38;7.65;;;17.90;99.90;;;;;;5033724;28;20040;-84
2021/09/07 01:40:09;;;;;;;9.50;7.20;;;17.90;99.90;;;;;;5032818;28;20026;-84
2021/09/07 01:42:35;;;;;;;11.98;7.78;;;17.90;99.90;;;;;;5033529;28;20021;-84
2021/09/07 01:45:01;;;;;;;9.95;7.75;;;17.90;99.90;;;;;;5033388;28;20026;-83
2021/09/07 01:47:27;;;;;;;10.10;7.78;;;17.90;99.90;;;;;;4999730;28;20038;-83
2021/09/07 01:49:53;;;;;;;12.60;8.13;;;17.80;99.90;;;;;;5015851;28;20057;-84
2021/09/07 01:52:19;;;;;;;10.00;7.25;;;17.80;99.90;;;;;;5015634;28;20037;-83
2021/09/07 01:54:47;;;;;;;10.52;7.35;;;17.80;99.90;;;;;;5040920;28;20075;-83
2021/09/07 01:57:13;;;;;;;10.85;7.95;;;17.70;99.90;;;;;;5032354;28;20536;-84
2021/09/07 01:59:39;;;;;;;9.93;7.55;;;17.70;99.90;;;;;;5033605;28;20029;-84
2021/09/07 02:02:06;;;;;;;9.43;7.25;;;17.60;99.90;;;;;;5033793;28;20055;-84
2021/09/07 02:04:31;;;;;;;10.90;7.25;;;17.60;99.90;;;;;;4999464;28;20029;-83
2021/09/07 02:07:00;;;;;;;9.40;7.50;;;17.50;99.90;;;;;;5032179;28;20124;-84
2021/09/07 02:09:32;;;;;;;11.10;8.30;;;17.50;99.90;;;;;;5033469;28;20056;-84
2021/09/07 02:12:01;;;;;;;10.88;7.68;;;17.50;99.90;;;;;;5032334;28;20033;-85
2021/09/07 02:14:30;;;;;;;10.57;7.43;;;17.50;99.90;;;;;;5032130;28;20029;-83
2021/09/07 02:16:58;;;;;;;9.65;7.30;;;17.50;99.90;;;;;;5016130;28;20026;-83
2021/09/07 02:19:27;;;;;;;11.80;7.78;;;17.50;99.90;;;;;;5031823;28;20029;-83
2021/09/07 02:21:54;;;;;;;10.38;7.88;;;17.50;99.90;;;;;;5016009;28;20044;-83
2021/09/07 02:24:24;;;;;;;10.90;7.95;;;17.60;99.90;;;;;;5016889;28;20036;-83
2021/09/07 02:26:54;;;;;;;9.52;7.35;;;17.50;99.90;;;;;;5032146;28;20037;-83
2021/09/07 02:29:22;;;;;;;11.50;7.40;;;17.50;99.90;;;;;;5015829;28;20029;-83
2021/09/07 02:31:50;;;;;;;11.20;7.95;;;17.60;99.90;;;;;;5031857;28;20053;-83
2021/09/07 02:34:19;;;;;;;11.70;7.85;;;17.60;99.90;;;;;;5032013;28;20076;-83
2021/09/07 02:36:48;;;;;;;10.48;7.53;;;17.70;99.90;;;;;;5015862;28;20042;-83
2021/09/07 02:39:14;;;;;;;12.38;7.95;;;17.70;99.90;;;;;;5032680;28;20017;-83
2021/09/07 02:41:40;;;;;;;9.57;7.00;;;17.70;99.90;;;;;;5015544;28;20087;-83
2021/09/07 02:44:12;;;;;;;10.27;7.38;;;17.70;99.90;;;;;;5035587;28;20025;-83
2021/09/07 02:46:42;;;;;;;10.32;7.38;;;17.70;99.90;;;;;;5036786;28;20037;-83
2021/09/07 02:49:07;;;;;;;10.95;7.30;;;17.70;99.90;;;;;;5036648;28;20026;-82
2021/09/07 02:51:34;;;;;;;10.30;7.85;;;17.70;99.90;;;;;;5035305;28;20021;-83
2021/09/07 02:54:01;;;;;;;10.88;7.30;;;17.70;99.90;;;;;;5035357;28;20061;-83
2021/09/07 02:56:30;;;;;;;10.65;7.68;;;17.70;99.90;;;;;;5035302;28;20033;-83
2021/09/07 02:59:01;;;;;;;9.15;7.18;;;17.70;99.90;;;;;;5018777;28;20030;-83
2021/09/07 03:01:29;;;;;;;10.88;7.95;;;17.70;99.90;;;;;;5036735;28;20017;-83
2021/09/07 03:03:59;;;;;;;11.88;8.30;;;17.80;99.90;;;;;;5035224;28;20023;-82
2021/09/07 03:06:30;;;;;;;9.10;7.45;;;17.80;99.90;;;;;;5034892;28;20061;-82
2021/09/07 03:08:58;;;;;;;10.70;8.13;;;17.70;99.90;;;;;;5034914;28;20068;-83
2021/09/07 03:11:27;;;;;;;13.15;7.93;;;17.70;99.90;;;;;;5034583;28;20030;-82
2021/09/07 03:14:01;;;;;;;11.18;7.68;;;17.70;99.90;;;;;;5032554;28;20053;-82
2021/09/07 03:16:33;;;;;;;11.23;8.13;;;17.70;99.90;;;;;;5035003;28;20025;-83
2021/09/07 03:19:02;;;;;;;11.65;8.27;;;17.60;99.90;;;;;;5034595;28;20117;-83
2021/09/07 03:21:37;;;;;;;10.18;7.45;;;17.70;99.90;;;;;;5035012;28;20033;-83
2021/09/07 03:24:10;;;;;;;11.00;8.15;;;17.70;99.90;;;;;;5035651;28;20363;-83
2021/09/07 03:26:39;;;;;;;12.85;7.72;;;17.70;99.90;;;;;;5034601;28;20033;-83
2021/09/07 03:29:05;;;;;;;10.02;7.32;;;17.70;99.90;;;;;;5033373;28;20095;-81
2021/09/07 03:31:34;;;;;;;10.25;7.80;;;17.60;99.90;;;;;;5034614;28;20025;-84
2021/09/07 03:34:02;;;;;;;11.05;7.72;;;17.60;99.90;;;;;;5034373;28;20102;-84
2021/09/07 03:36:33;;;;;;;10.90;8.43;;;17.60;99.90;;;;;;5035925;28;20041;-84
2021/09/07 03:39:00;;;;;;;11.02;7.13;;;17.50;99.90;;;;;;5034526;28;20474;-83
2021/09/07 03:41:29;;;;;;;10.82;7.63;;;17.50;99.90;;;;;;5018070;28;20025;-83
2021/09/07 03:44:03;;;;;;;13.30;8.60;;;17.50;99.90;;;;;;5036505;28;20021;-84
2021/09/07 03:46:29;;;;;;;11.43;8.20;;;17.60;99.90;;;;;;5034852;28;20112;-83
2021/09/07 03:49:10;;;;;;;10.57;7.80;;;17.50;99.90;;;;;;5018025;28;20040;-85
2021/09/07 03:51:43;;;;;;;12.95;8.55;;;17.60;99.90;;;;;;5034283;28;20071;-85
2021/09/07 03:54:10;;;;;;;11.93;8.40;;;17.50;99.90;;;;;;5034303;28;20382;-84
2021/09/07 03:56:37;;;;;;;14.20;8.70;;;17.50;99.90;;;;;;5017371;28;20037;-85
2021/09/07 03:59:04;;;;;;;12.32;8.35;;;17.50;99.90;;;;;;5034942;28;20041;-83
2021/09/07 04:01:29;;;;;;;11.75;8.15;;;17.50;99.90;;;;;;5034179;28;20044;-83
2021/09/07 04:03:55;;;;;;;10.88;7.82;;;17.50;99.90;;;;;;5033990;28;20481;-83
2021/09/07 04:06:21;;;;;;;12.93;8.77;;;17.40;99.90;;;;;;5034240;28;20060;-83
2021/09/07 04:08:47;;;;;;;11.18;8.15;;;17.40;99.90;;;;;;5033384;28;20054;-84
2021/09/07 04:11:14;;;;;;;12.15;7.82;;;17.30;99.90;;;;;;5017491;28;20025;-84
2021/09/07 04:13:40;;;;;;;11.90;8.80;;;17.30;99.90;;;;;;5033923;28;20113;-84
2021/09/07 04:16:06;;;;;;;14.00;8.52;;;17.20;99.90;;;;;;5000997;28;20545;-83
2021/09/07 04:18:33;;;;;;;12.20;8.60;;;17.10;99.90;;;;;;5017422;28;20021;-84
2021/09/07 04:21:00;;;;;;;12.63;8.40;;;17.10;99.90;;;;;;5033246;28;20583;-83
2021/09/07 04:23:26;;;;;;;11.13;7.85;;;16.90;99.90;;;;;;5000879;28;20049;-84
2021/09/07 04:25:52;;;;;;;10.88;7.97;;;16.90;99.90;;;;;;5017066;28;20469;-83
2021/09/07 04:28:21;;;;;;;13.15;8.40;;;16.80;99.90;;;;;;5017236;28;20084;-83
2021/09/07 04:30:56;;;;;;;13.10;9.00;;;16.80;99.90;;;;;;5033622;28;20040;-83
2021/09/07 04:33:23;;;;;;;10.82;7.88;;;16.80;99.90;;;;;;5034405;28;20105;-83
2021/09/07 04:35:50;;;;;;;11.55;8.77;;;16.70;99.90;;;;;;5034431;28;20026;-83
2021/09/07 04:38:16;;;;;;;12.23;8.02;;;16.60;99.90;;;;;;5033456;28;20049;-83
2021/09/07 04:40:43;;;;;;;12.30;9.05;;;16.60;99.90;;;;;;5034651;28;20022;-83
2021/09/07 04:43:09;;;;;;;12.95;8.85;;;16.50;99.90;;;;;;5034621;28;20519;-84
2021/09/07 04:45:35;;;;;;;12.27;8.45;;;16.50;99.90;;;;;;5016825;28;20053;-83
2021/09/07 04:48:05;;;;;;;13.25;9.00;;;16.40;99.90;;;;;;5032883;28;20073;-83
2021/09/07 04:50:32;;;;;;;13.50;8.70;;;16.40;99.90;;;;;;5000143;28;20031;-84
2021/09/07 04:52:59;;;;;;;11.50;7.85;;;16.30;99.90;;;;;;5034385;28;20032;-83
2021/09/07 04:55:25;;;;;;;13.48;8.70;;;16.30;99.90;;;;;;5014389;28;20132;-83
2021/09/07 04:57:52;;;;;;;13.75;8.57;;;16.30;99.90;;;;;;5014813;28;20152;-83
2021/09/07 05:00:18;;;;;;;13.18;8.68;;;16.20;99.90;;;;;;5014336;28;20473;-83
2021/09/07 05:02:44;;;;;;;12.18;8.32;;;16.20;99.90;;;;;;5014221;28;20026;-84
2021/09/07 05:05:10;;;;;;;12.77;8.40;;;16.20;99.90;;;;;;5029934;28;20082;-84
2021/09/07 05:07:37;;;;;;;13.07;9.05;;;16.20;99.90;;;;;;5014218;28;20041;-83
2021/09/07 05:10:04;;;;;;;13.07;9.23;;;16.20;99.90;;;;;;5014047;28;20061;-84
2021/09/07 05:12:32;;;;;;;12.98;8.70;;;16.20;99.90;;;;;;5030477;28;20390;-84
2021/09/07 05:14:59;;;;;;;12.68;8.90;;;16.20;99.90;;;;;;5030594;28;20045;-84
2021/09/07 05:17:26;;;;;;;12.18;8.35;;;16.20;99.90;;;;;;5030550;28;20025;-84
2021/09/07 05:19:52;;;;;;;12.65;9.32;;;16.20;99.90;;;;;;5030826;28;20030;-83
2021/09/07 05:22:19;;;;;;;13.73;8.70;;;16.20;99.90;;;;;;5016045;28;20052;-83
2021/09/07 05:24:47;;;;;;;14.18;9.35;;;16.30;99.90;;;;;;5016014;28;20335;-83
2021/09/07 05:27:13;;;;;;;12.25;8.73;;;16.30;99.90;;;;;;5016411;28;20025;-84
2021/09/07 05:29:39;;;;;;;13.38;9.02;;;16.30;99.90;;;;;;5016225;28;20198;-83
2021/09/07 05:32:05;;;;;;;12.55;8.65;;;16.30;99.90;;;;;;5033075;28;20029;-83
2021/09/07 05:34:34;;;;;;;14.07;9.23;;;16.30;99.90;;;;;;5033474;28;20449;-83
2021/09/07 05:37:00;;;;;;;13.52;9.77;;;16.40;99.90;;;;;;5033667;28;20033;-83
2021/09/07 05:39:26;;;;;;;13.52;8.50;;;16.40;99.90;;;;;;5016162;28;20481;-83
2021/09/07 05:41:54;;;;;;;12.30;8.63;;;16.40;99.90;;;;;;5032485;28;20109;-82
2021/09/07 05:44:23;;;;;;;13.88;9.52;;;16.40;99.90;;;;;;5033839;28;20481;-83
2021/09/07 05:46:54;;;;;;;13.43;9.00;;;16.40;99.90;;;;;;5015585;28;20548;-82
2021/09/07 05:49:20;;;;;;;14.00;9.82;;;16.40;99.90;;;;;;5033738;28;20025;-82
2021/09/07 05:51:46;;;;;;;14.52;9.38;;;16.40;99.90;;;;;;5033242;28;20017;-83
2021/09/07 05:54:12;;;;;;;14.05;9.95;;;16.40;99.90;;;;;;5032704;28;20040;-83
2021/09/07 05:56:39;;;;;;;14.35;9.57;;;16.40;99.90;;;;;;5015738;28;20433;-83
2021/09/07 05:59:05;;;;;;;14.65;10.15;;;16.50;99.90;;;;;;5032196;28;20433;-82
2021/09/07 06:01:35;;;;;;;14.07;9.98;;;16.50;99.90;;;;;;5033226;28;20093;-82
2021/09/07 06:04:02;;;;;;;15.15;9.80;;;16.50;99.90;;;;;;5016122;28;20367;-83
2021/09/07 06:06:29;;;;;;;15.02;10.38;;;16.50;99.90;;;;;;5015615;28;20132;-84
2021/09/07 06:08:55;;;;;;;14.88;10.07;;;16.50;99.90;;;;;;5031476;28;20049;-83
2021/09/07 06:11:21;;;;;;;16.25;10.55;;;16.60;99.90;;;;;;5032994;28;20029;-83
2021/09/07 06:13:48;;;;;;;15.68;10.93;;;16.60;99.90;;;;;;5015762;28;20064;-83
2021/09/07 06:16:15;;;;;;;14.75;10.45;;;16.60;99.90;;;;;;5032299;28;20076;-83
2021/09/07 06:18:41;;;;;;;18.75;11.20;;;16.70;99.90;;;;;;5019083;28;20030;-83
2021/09/07 06:21:13;;;;;;;21.45;11.77;;;16.80;99.90;;;;;;5035781;28;20018;-83
2021/09/07 06:23:40;;;;;;;16.40;11.35;;;16.80;99.90;;;;;;5035615;28;20033;-82
2021/09/07 06:26:10;;;;;;;15.27;10.88;;;16.90;99.90;;;;;;5035700;28;20032;-82
2021/09/07 06:28:37;;;;;;;16.98;10.90;;;17.00;99.90;;;;;;5036948;28;20025;-82
2021/09/07 06:31:03;;;;;;;15.32;11.45;;;17.20;99.90;;;;;;5035743;28;20013;-83
2021/09/07 06:33:30;;;;;;;16.60;12.20;;;17.30;99.90;;;;;;5019300;28;20021;-83
2021/09/07 06:35:58;;;;;;;16.23;11.25;;;17.50;99.90;;;;;;5035709;28;20017;-83
2021/09/07 06:38:24;;;;;;;14.82;10.23;;;17.70;99.90;;;;;;5035661;28;20033;-83
2021/09/07 06:40:52;;;;;;;15.35;10.95;;;17.80;99.90;;;;;;5035430;28;20052;-82
2021/09/07 06:43:20;;;;;;;18.52;11.63;;;17.90;99.90;;;;;;5002675;28;20060;-83
2021/09/07 06:45:47;;;;;;;16.73;12.25;;;18.10;99.90;;;;;;5035285;28;20381;-82
2021/09/07 06:48:17;;;;;;;15.40;11.90;;;18.20;99.90;;;;;;5002602;28;20038;-83
2021/09/07 06:50:47;;;;;;;16.02;11.63;;;18.30;99.90;;;;;;5035600;28;20108;-82
2021/09/07 06:53:14;;;;;;;15.88;11.20;;;18.40;99.90;;;;;;5035545;28;20076;-82
2021/09/07 06:55:40;;;;;;;16.95;12.52;;;18.50;99.90;;;;;;5036545;28;20037;-82
2021/09/07 06:58:07;;;;;;;16.15;11.57;;;18.50;99.90;;;;;;5036208;28;20038;-83
2021/09/07 07:00:37;;;;;;;16.58;12.27;;;18.60;99.90;;;;;;5034649;28;20481;-84
2021/09/07 07:03:14;;;;;;;15.38;11.13;;;18.70;99.90;;;;;;5017532;28;20650;-83
2021/09/07 07:05:41;;;;;;;18.67;12.20;;;18.70;99.90;;;;;;5033044;28;20541;-83
2021/09/07 07:08:12;;;;;;;16.42;11.45;;;18.90;99.90;;;;;;5003610;28;20091;-83
2021/09/07 07:10:48;;;;;;;18.02;12.15;;;19.00;99.90;;;;;;5033258;28;20080;-83
2021/09/07 07:13:21;;;;;;;15.50;11.27;;;19.10;99.90;;;;;;5016731;28;20030;-84
2021/09/07 07:15:55;;;;;;;14.90;11.02;;;19.20;99.90;;;;;;5034404;28;20094;-83
2021/09/07 07:18:24;;;;;;;14.70;10.57;;;19.30;99.90;;;;;;5035114;28;20053;-83
2021/09/07 07:20:54;;;;;;;15.35;10.88;;;19.30;99.90;;;;;;5034777;28;20084;-83
2021/09/07 07:23:20;;;;;;;14.27;10.70;;;19.40;99.90;;;;;;5041964;28;20052;-83
2021/09/07 07:25:51;;;;;;;17.00;11.50;;;19.50;99.90;;;;;;5034908;28;20025;-84
2021/09/07 07:28:20;;;;;;;17.35;12.38;;;19.60;99.90;;;;;;5017808;28;20048;-83
2021/09/07 07:30:49;;;;;;;17.42;11.93;;;19.70;99.90;;;;;;5034527;28;20385;-83
2021/09/07 07:33:16;;;;;;;16.00;11.98;;;19.80;99.90;;;;;;5017362;28;20029;-83
2021/09/07 07:35:44;;;;;;;17.02;11.63;;;20.00;99.90;;;;;;5034607;28;20026;-83
2021/09/07 07:38:14;;;;;;;16.88;12.70;;;20.00;99.90;;;;;;5033827;28;20041;-83
2021/09/07 07:40:40;;;;;;;14.80;11.80;;;20.10;99.90;;;;;;5033709;28;20034;-83
2021/09/07 07:43:10;;;;;;;15.32;11.52;;;20.20;99.90;;;;;;5034534;28;20026;-83
2021/09/07 07:45:39;;;;;;;15.45;11.73;;;20.20;99.90;;;;;;5035192;28;20528;-83
2021/09/07 07:48:07;;;;;;;16.75;11.75;;;20.30;99.90;;;;;;5034483;28;20032;-83
2021/09/07 07:50:36;;;;;;;16.38;11.45;;;20.40;99.90;;;;;;5035133;28;20029;-83
2021/09/07 07:53:04;;;;;;;15.32;11.15;;;20.50;99.90;;;;;;5033688;28;20029;-84
2021/09/07 07:55:33;;;;;;;15.45;11.77;;;20.60;99.90;;;;;;5053623;28;20036;-84
2021/09/07 07:58:01;;;;;;;16.67;11.32;;;20.60;99.90;;;;;;5024467;28;20080;-83
2021/09/07 08:00:28;;;;;;;15.50;11.95;;;20.70;99.90;;;;;;5006537;28;20041;-83
2021/09/07 08:02:56;;;;;;;17.13;11.80;;;20.80;99.90;;;;;;5031738;28;20041;-83
2021/09/07 08:05:26;;;;;;;16.02;12.15;;;20.90;99.90;;;;;;5033770;28;20032;-83
2021/09/07 08:07:55;;;;;;;15.80;12.55;;;21.10;99.90;;;;;;5026374;28;20379;-83
2021/09/07 08:10:25;;;;;;;18.30;12.85;;;21.20;99.90;;;;;;5014733;28;20121;-83
2021/09/07 08:12:56;;;;;;;22.05;13.05;;;21.30;99.90;;;;;;5015222;28;20036;-83
2021/09/07 08:15:28;;;;;;;15.70;11.27;;;21.50;99.90;;;;;;5013881;28;20034;-83
2021/09/07 08:17:56;;;;;;;17.80;12.70;;;21.70;99.90;;;;;;5012856;28;20080;-84
2021/09/07 08:20:23;;;;;;;16.83;12.30;;;21.80;99.90;;;;;;5013287;28;20037;-85
2021/09/07 08:22:49;;;;;;;17.02;13.10;;;21.80;99.90;;;;;;5014944;28;20112;-83
2021/09/07 08:25:17;;;;;;;17.95;13.73;;;22.00;99.90;;;;;;5013846;28;20501;-83
2021/09/07 08:27:46;;;;;;;19.83;14.23;;;22.10;99.90;;;;;;5014775;28;20042;-83
2021/09/07 08:30:19;;;;;;;18.63;13.40;;;22.20;99.90;;;;;;5028762;28;20117;-84
2021/09/07 08:32:47;;;;;;;15.95;11.80;;;22.30;99.90;;;;;;5014886;28;20045;-84
2021/09/07 08:35:17;;;;;;;17.88;12.32;;;22.40;99.90;;;;;;5032159;28;20385;-84
2021/09/07 08:37:44;;;;;;;14.48;11.30;;;22.50;99.90;;;;;;5030889;28;20496;-84
2021/09/07 08:40:20;;;;;;;20.73;15.80;;;22.60;99.90;;;;;;5015708;28;20030;-84
2021/09/07 08:42:55;;;;;;;16.10;12.40;;;22.70;99.90;;;;;;5015560;28;20018;-85
2021/09/07 08:45:27;;;;;;;14.75;10.88;;;22.90;99.90;;;;;;5013311;28;20078;-85
2021/09/07 08:47:59;;;;;;;16.20;11.80;;;23.00;99.90;;;;;;5013060;28;20088;-85
2021/09/07 08:50:25;;;;;;;15.40;11.80;;;23.20;99.90;;;;;;5013713;28;20555;-84
2021/09/07 08:53:01;;;;;;;15.52;12.05;;;23.30;99.90;;;;;;4997109;28;20041;-85
2021/09/07 08:55:29;;;;;;;17.90;12.93;;;23.50;99.90;;;;;;5013457;28;20040;-83
2021/09/07 08:57:56;;;;;;;18.17;13.43;;;23.50;99.90;;;;;;5013161;28;20558;-83
2021/09/07 09:00:29;;;;;;;18.75;14.13;;;23.50;99.90;;;;;;5014868;28;20046;-83
2021/09/07 09:03:16;;;;;;;16.42;11.82;;;23.60;99.90;;;;;;5014426;28;20117;-84
2021/09/07 09:05:48;;;;;;;15.63;11.60;;;23.70;99.90;;;;;;5014209;28;20406;-84
2021/09/07 09:08:17;;;;;;;15.02;11.57;;;23.80;99.90;;;;;;5013003;28;20025;-84
2021/09/07 09:10:45;;;;;;;15.18;10.77;;;23.90;99.90;;;;;;5012839;28;20284;-83
2021/09/07 09:13:21;;;;;;;13.98;10.80;;;24.10;99.90;;;;;;5022924;28;20029;-84
2021/09/07 09:16:06;;;;;;;14.48;10.30;;;24.30;99.90;;;;;;4999172;28;20085;-84
2021/09/07 09:18:35;;;;;;;11.60;9.30;;;24.40;99.90;;;;;;5012493;28;20128;-84
2021/09/07 09:21:30;;;;;;;12.52;9.68;;;24.60;99.90;;;;;;5013960;28;20022;-84
2021/09/07 09:24:19;;;;;;;10.55;8.27;;;24.70;99.90;;;;;;5013009;28;20103;-84
2021/09/07 09:27:14;;;;;;;11.65;8.77;;;24.80;99.90;;;;;;5012270;28;20030;-84
2021/09/07 09:29:42;;;;;;;12.32;8.63;;;25.00;99.90;;;;;;5011029;28;20042;-84
2021/09/07 09:32:24;;;;;;;12.65;8.73;;;25.00;99.90;;;;;;5015044;28;20069;-84
2021/09/07 09:35:06;;;;;;;12.60;9.45;;;25.00;99.90;;;;;;4997183;28;20033;-84
2021/09/07 09:37:34;;;;;;;12.43;8.80;;;25.00;99.90;;;;;;5016481;28;20120;-85
2021/09/07 09:40:08;;;;;;;10.52;8.07;;;25.20;99.90;;;;;;5028442;28;20041;-85
2021/09/07 09:42:34;;;;;;;15.88;12.07;;;26.00;99.90;;;;;;5015434;28;20098;-85
2021/09/07 09:45:07;;;;;;;12.45;9.82;;;27.00;98.60;;;;;;5048175;28;20033;-83
2021/09/07 09:47:45;;;;;;;12.02;9.45;;;28.10;97.70;;;;;;5037683;28;20436;-84
2021/09/07 09:50:14;;;;;;;18.58;13.90;;;29.10;96.70;;;;;;5040157;28;20473;-84
2021/09/07 09:52:41;;;;;;;12.88;10.30;;;29.80;94.50;;;;;;5030713;28;20037;-84
2021/09/07 09:55:11;;;;;;;15.35;11.43;;;30.10;93.70;;;;;;5018717;28;20025;-84
2021/09/07 09:57:39;;;;;;;14.45;11.98;;;30.40;92.30;;;;;;5043584;28;20064;-85
2021/09/07 10:00:09;;;;;;;16.75;13.07;;;30.70;90.90;;;;;;5044724;28;20048;-85
2021/09/07 10:02:41;;;;;;;14.32;10.65;;;30.70;87.50;;;;;;5030852;28;20048;-84
2021/09/07 10:05:13;;;;;;;11.43;8.97;;;30.90;88.30;;;;;;5020384;28;20024;-85
2021/09/07 10:07:45;;;;;;;13.60;11.38;;;31.40;88.30;;;;;;5045446;28;20064;-85
2021/09/07 10:10:21;;;;;;;16.30;13.80;;;31.90;87.50;;;;;;5050806;28;20044;-84
2021/09/07 10:13:00;;;;;;;11.25;9.43;;;32.20;84.50;;;;;;5032039;28;20057;-85
2021/09/07 10:24:53;;;;;;;9.95;8.50;;;33.90;73.70;;;;;;4992338;28;20105;-85
2021/09/07 10:28:03;;;;;;;9.98;8.18;;;33.90;76.10;;;;;;5025327;28;20408;-86
2021/09/07 10:31:28;;;;;;;8.93;7.28;;;34.20;75.70;;;;;;5039515;28;20041;-85
2021/09/07 10:33:59;;;;;;;8.18;6.63;;;34.60;74.50;;;;;;5001022;28;20044;-85
2021/09/07 10:36:31;;;;;;;8.73;7.32;;;34.80;73.40;;;;;;4997070;28;20088;-86
2021/09/07 10:39:03;;;;;;;8.93;6.60;;;35.00;72.00;;;;;;5000316;28;20030;-86
2021/09/07 10:41:45;;;;;;;9.82;8.25;;;35.20;71.80;;;;;;5011399;28;20034;-85
2021/09/07 10:44:31;;;;;;;10.48;8.32;;;35.40;69.90;;;;;;5042374;28;20025;-86
2021/09/07 10:47:07;;;;;;;10.80;9.45;;;35.10;69.30;;;;;;5035671;28;20104;-85
2021/09/07 10:50:00;;;;;;;12.60;10.68;;;34.90;69.10;;;;;;5043828;28;20025;-85
2021/09/07 10:52:36;;;;;;;10.77;8.43;;;34.80;68.70;;;;;;5028575;28;20065;-86
2021/09/07 10:55:18;;;;;;;9.60;8.60;;;34.80;69.20;;;;;;5047227;28;20041;-85
2021/09/07 10:57:56;;;;;;;9.13;8.17;;;35.10;68.60;;;;;;5030440;28;20030;-85
2021/09/07 11:00:35;;;;;;;10.77;8.43;;;35.20;68.40;;;;;;5047885;28;20029;-85
2021/09/07 11:03:11;;;;;;;10.80;9.07;;;35.30;68.30;;;;;;5038088;28;20033;-86
2021/09/07 11:05:45;;;;;;;9.98;8.50;;;35.20;67.60;;;;;;5046775;28;20112;-84
2021/09/07 11:08:43;;;;;;;10.70;8.60;;;35.10;67.50;;;;;;5041457;28;20025;-85
2021/09/07 11:11:27;;;;;;;10.10;8.65;;;35.30;67.40;;;;;;5037937;28;20444;-85
2021/09/07 11:14:06;;;;;;;8.88;7.88;;;35.40;67.30;;;;;;5044737;28;20525;-84
2021/09/07 11:16:38;;;;;;;9.40;8.35;;;35.40;67.00;;;;;;5049185;28;20047;-85
2021/09/07 11:19:07;;;;;;;9.15;8.20;;;35.50;66.40;;;;;;5037603;28;20032;-85
2021/09/07 11:21:42;;;;;;;9.75;8.70;;;35.70;66.00;;;;;;5045635;28;20033;-85
2021/09/07 11:24:19;;;;;;;10.13;8.50;;;35.80;64.60;;;;;;5046266;28;20029;-84
2021/09/07 11:26:58;;;;;;;9.75;8.32;;;35.80;64.50;;;;;;5037536;28;20549;-85
2021/09/07 11:29:33;;;;;;;11.30;8.77;;;35.70;64.20;;;;;;5048000;28;20028;-84
2021/09/07 11:32:26;;;;;;;9.77;8.13;;;35.50;63.40;;;;;;5044360;28;20040;-85
2021/09/07 11:35:16;;;;;;;9.32;8.40;;;35.20;63.40;;;;;;5037071;28;20339;-86
2021/09/07 11:37:43;;;;;;;10.30;8.25;;;35.00;63.80;;;;;;5045119;28;20041;-84
2021/09/07 11:40:17;;;;;;;8.82;7.53;;;34.90;63.90;;;;;;5047269;28;20044;-85
2021/09/07 11:42:48;;;;;;;8.52;7.63;;;35.10;63.80;;;;;;5047584;28;20029;-84
2021/09/07 11:45:25;;;;;;;8.98;7.57;;;35.20;63.70;;;;;;5049274;28;20032;-85
2021/09/07 11:47:57;;;;;;;10.30;8.13;;;35.50;63.40;;;;;;5043177;28;20036;-85
2021/09/07 11:50:31;;;;;;;12.02;9.00;;;36.00;63.00;;;;;;5039742;28;20049;-85
2021/09/07 11:53:09;;;;;;;8.73;7.50;;;36.00;61.30;;;;;;5035563;28;20033;-85
2021/09/07 11:55:52;;;;;;;8.52;7.20;;;36.00;61.80;;;;;;5046267;28;20025;-85
2021/09/07 11:58:35;;;;;;;8.13;7.00;;;36.40;61.60;;;;;;5047978;28;20481;-85
2021/09/07 12:01:09;;;;;;;;;;;36.60;61.40;;;;;;5034679;28;20025;-86
2021/09/07 12:03:51;;;;;;;8.65;7.10;;;36.50;61.80;;;;;;5040905;28;19909;-85
2021/09/07 12:06:39;;;;;;;8.48;7.43;;;36.90;61.60;;;;;;5040262;28;20033;-86
2021/09/07 12:09:12;;;;;;;10.32;7.15;;;37.10;61.10;;;;;;5041923;28;20139;-84
2021/09/07 12:11:39;;;;;;;;;;;37.10;61.00;;;;;;5043776;28;20141;-85
2021/09/07 12:14:14;;;;;;;10.00;8.20;;;36.90;61.50;;;;;;5058573;28;20050;-85
2021/09/07 12:17:06;;;;;;;9.23;7.75;;;36.90;60.90;;;;;;5033944;28;20042;-86
2021/09/07 12:19:44;;;;;;;9.75;8.27;;;36.90;60.90;;;;;;5026715;28;20780;-86
2021/09/07 12:22:37;;;;;;;8.35;7.30;;;36.90;60.70;;;;;;5038528;28;20025;-85
2021/09/07 12:25:18;;;;;;;8.07;6.88;;;37.20;60.60;;;;;;5047169;28;20049;-85
2021/09/07 12:27:57;;;;;;;8.18;7.38;;;37.40;60.30;;;;;;5033907;28;20038;-85
2021/09/07 12:30:32;;;;;;;9.02;7.18;;;37.60;60.00;;;;;;5019685;28;20064;-85
2021/09/07 12:33:09;;;;;;;7.18;6.40;;;37.60;60.00;;;;;;5035139;28;20045;-85
2021/09/07 12:35:41;;;;;;;8.18;7.32;;;37.80;60.10;;;;;;5044868;28;20052;-85
2021/09/07 12:38:20;;;;;;;7.80;7.00;;;38.00;59.50;;;;;;5040163;28;20032;-86
2021/09/07 12:40:58;;;;;;;8.10;7.20;;;38.10;59.40;;;;;;5049880;28;20025;-86
2021/09/07 12:43:53;;;;;;;9.23;7.22;;;38.20;59.00;;;;;;5026022;28;20043;-88
2021/09/07 12:46:25;;;;;;;10.32;8.48;;;38.20;58.40;;;;;;5039437;28;20033;-85
2021/09/07 12:49:02;;;;;;;9.07;7.47;;;38.00;58.30;;;;;;5054185;28;20044;-85
2021/09/07 12:51:30;;;;;;;7.68;6.88;;;38.00;58.30;;;;;;5038000;28;20037;-86
2021/09/07 12:54:00;;;;;;;7.65;6.80;;;38.20;58.40;;;;;;5043828;28;20476;-86
2021/09/07 12:56:47;;;;;;;7.65;6.93;;;38.30;58.20;;;;;;5041047;28;20022;-86
2021/09/07 12:59:17;;;;;;;7.72;6.85;;;38.30;56.90;;;;;;5023882;28;20037;-85
2021/09/07 13:01:46;;;;;;;9.70;7.75;;;38.30;57.10;;;;;;5044742;28;20037;-84
2021/09/07 13:04:14;;;;;;;9.85;7.25;;;37.80;56.40;;;;;;5036106;28;20060;-85